Time;durP1;ratioP1;P1;durP2;ratioP2;P2;SDS_P1;SDS_P2;PMS_P1;PMS_P2;Temp;Humidity;BMP_temperature;BMP_pressure;BME280_temperature;BME280_humidity;BME280_pressure;Samples;Min_cycle;Max_cycle;Signal;HPM_P1;HPM_P2
2021/03/15 00:01:55;;;;;;;16.48;11.00;;;;;;;10.85;61.23;96152.66;4998275;28;20053;-86
2021/03/15 00:04:20;;;;;;;28.98;14.27;;;;;;;10.80;62.44;96157.53;4981321;28;20497;-87
2021/03/15 00:06:46;;;;;;;20.65;11.82;;;;;;;10.82;63.06;96142.22;4987956;28;20417;-85
2021/03/15 00:09:11;;;;;;;27.52;14.38;;;;;;;10.83;62.04;96151.91;5013748;28;20029;-86
2021/03/15 00:11:38;;;;;;;31.02;15.30;;;;;;;10.65;62.02;96135.59;4997389;28;20034;-85
2021/03/15 00:14:03;;;;;;;28.33;11.82;;;;;;;10.79;62.69;96145.16;4996968;28;20033;-86
2021/03/15 00:16:29;;;;;;;23.70;12.75;;;;;;;10.71;62.84;96144.94;4980178;28;20034;-87
2021/03/15 00:18:54;;;;;;;17.98;11.15;;;;;;;10.67;64.53;96140.84;4981219;28;20091;-86
2021/03/15 00:21:20;;;;;;;33.22;17.33;;;;;;;10.62;62.77;96129.66;4996669;28;20112;-86
2021/03/15 00:23:45;;;;;;;29.08;16.58;;;;;;;10.64;63.59;96133.09;4981120;28;20124;-87
2021/03/15 00:26:29;;;;;;;34.55;17.42;;;;;;;10.68;63.16;96147.88;4981067;28;20026;-86
2021/03/15 00:28:55;;;;;;;30.27;16.00;;;;;;;10.70;61.61;96137.91;4996837;28;20025;-86
2021/03/15 00:31:21;;;;;;;33.05;16.10;;;;;;;10.78;62.42;96140.75;4980865;28;20022;-87
2021/03/15 00:33:46;;;;;;;25.88;14.82;;;;;;;10.82;63.79;96132.38;4980677;28;20136;-88
2021/03/15 00:36:12;;;;;;;14.25;9.43;;;;;;;11.51;68.56;96150.44;4981268;28;20026;-88
2021/03/15 00:38:37;;;;;;;20.75;10.40;;;;;;;11.74;69.11;96136.75;4981465;28;20018;-87
2021/03/15 00:41:03;;;;;;;15.75;9.80;;;;;;;12.06;68.16;96133.84;4980747;28;20026;-87
2021/03/15 00:43:28;;;;;;;14.57;9.38;;;;;;;12.19;68.07;96144.31;4980683;28;20022;-87
2021/03/15 00:45:54;;;;;;;16.00;9.30;;;;;;;12.31;67.00;96141.34;4980709;28;20034;-87
2021/03/15 00:48:19;;;;;;;18.38;11.90;;;;;;;12.40;67.42;96156.59;4996634;28;20025;-88
2021/03/15 00:50:45;;;;;;;19.52;11.95;;;;;;;12.48;67.70;96154.09;4994173;28;20065;-86
2021/03/15 00:53:10;;;;;;;15.43;9.88;;;;;;;12.52;69.41;96144.75;5013235;28;20026;-88
2021/03/15 00:55:37;;;;;;;17.23;11.20;;;;;;;12.52;71.59;96143.91;5014002;28;20030;-88
2021/03/15 00:58:03;;;;;;;26.33;13.48;;;;;;;12.47;72.70;96147.03;5013431;28;20096;-88
2021/03/15 01:00:32;;;;;;;19.92;12.07;;;;;;;12.35;74.09;96142.78;5013699;28;20110;-89
2021/03/15 01:02:58;;;;;;;20.67;12.63;;;;;;;12.30;75.52;96136.16;4965178;28;828454;-87
2021/03/15 01:05:28;;;;;;;19.42;12.52;;;;;;;12.19;79.24;96129.06;4994146;28;20030;-88
2021/03/15 01:07:54;;;;;;;24.95;12.75;;;;;;;12.04;80.74;96110.84;4995196;28;20121;-87
2021/03/15 01:10:22;;;;;;;19.85;12.77;;;;;;;11.79;74.75;96112.22;4980980;28;20541;-86
2021/03/15 01:12:48;;;;;;;37.25;14.40;;;;;;;11.32;75.88;96113.75;4996838;28;20034;-86
2021/03/15 01:15:14;;;;;;;29.17;15.35;;;;;;;11.17;77.14;96107.03;4980901;28;20045;-86
2021/03/15 01:17:40;;;;;;;24.38;14.98;;;;;;;10.92;79.60;96094.13;4980621;28;20124;-88
2021/03/15 01:20:07;;;;;;;28.20;15.30;;;;;;;10.76;81.43;96083.91;4997016;28;20073;-87
2021/03/15 01:22:33;;;;;;;29.95;16.75;;;;;;;10.49;83.78;96075.56;4979867;28;20037;-88
2021/03/15 01:24:59;;;;;;;31.13;16.70;;;;;;;10.25;86.18;96065.13;4980341;28;20030;-88
2021/03/15 01:27:24;;;;;;;27.98;16.55;;;;;;;10.41;87.65;96062.84;4980590;28;20092;-86
2021/03/15 01:29:50;;;;;;;32.88;16.27;;;;;;;10.34;89.07;96051.81;4980253;28;20113;-85
2021/03/15 01:32:15;;;;;;;29.67;16.70;;;;;;;10.28;90.41;96047.00;4980130;28;20026;-86
2021/03/15 01:34:41;;;;;;;28.30;16.25;;;;;;;10.09;92.77;96049.50;4980107;28;20034;-88
2021/03/15 01:37:06;;;;;;;25.33;15.73;;;;;;;10.11;89.68;96049.38;4980044;28;20037;-86
2021/03/15 01:39:32;;;;;;;27.48;15.75;;;;;;;10.11;89.26;96034.22;4980373;28;20030;-87
2021/03/15 01:41:59;;;;;;;28.95;16.05;;;;;;;10.11;90.56;96039.53;4980360;28;20030;-87
2021/03/15 01:44:25;;;;;;;28.92;15.85;;;;;;;10.20;90.58;96046.81;4967401;28;20026;-87
2021/03/15 01:46:50;;;;;;;29.73;15.75;;;;;;;10.14;91.12;96044.66;5025984;28;20040;-86
2021/03/15 01:49:16;;;;;;;33.58;16.58;;;;;;;10.09;91.14;96025.44;4979874;28;20017;-86
2021/03/15 01:51:42;;;;;;;26.20;15.38;;;;;;;10.13;89.62;96024.25;4979681;28;20469;-87
2021/03/15 01:54:08;;;;;;;28.00;16.15;;;;;;;10.09;90.31;96030.78;4978582;28;20025;-86
2021/03/15 01:56:35;;;;;;;28.65;15.98;;;;;;;10.05;91.21;96034.72;4979899;28;20026;-86
2021/03/15 01:59:00;;;;;;;29.42;16.17;;;;;;;10.19;91.96;96034.41;4979651;28;20504;-87
2021/03/15 02:01:26;;;;;;;29.27;16.10;;;;;;;10.20;91.99;96028.13;4979583;28;20033;-86
2021/03/15 02:03:52;;;;;;;26.40;15.82;;;;;;;10.22;91.21;96028.81;4998656;28;20057;-86
2021/03/15 02:06:17;;;;;;;24.60;15.95;;;;;;;10.19;92.55;96023.72;5000406;28;20041;-87
2021/03/15 02:08:43;;;;;;;32.70;16.40;;;;;;;10.13;93.95;96020.69;5000061;28;20029;-88
2021/03/15 02:11:17;;;;;;;30.02;16.33;;;;;;;10.19;92.94;96030.91;4999074;28;20037;-87
2021/03/15 02:14:00;;;;;;;36.08;17.08;;;;;;;10.23;91.17;96027.84;4998963;28;20021;-87
2021/03/15 02:16:28;;;;;;;;;;;;;;;10.22;87.61;96020.81;4992580;28;20029;-87
2021/03/15 02:19:15;;;;;;;27.90;16.65;;;;;;;10.18;89.11;96016.69;4998810;28;19909;-86
2021/03/15 02:22:23;;;;;;;28.40;17.15;;;;;;;10.13;87.21;96010.91;5015159;28;20478;-86
2021/03/15 02:25:07;;;;;;;35.88;16.98;;;;;;;10.17;86.81;96011.50;4994541;28;20025;-86
2021/03/15 02:28:08;;;;;;;33.00;16.90;;;;;;;10.24;85.37;95997.47;5015780;28;20448;-86
2021/03/15 02:31:02;;;;;;;32.60;17.73;;;;;;;10.35;88.59;96004.56;4992085;28;20031;-86
2021/03/15 02:33:28;;;;;;;34.03;18.95;;;;;;;10.28;88.50;96006.91;4999005;28;20025;-86
2021/03/15 02:35:55;;;;;;;37.08;20.77;;;;;;;10.19;90.79;95991.69;5014862;28;20032;-87
2021/03/15 02:38:22;;;;;;;38.50;22.42;;;;;;;10.17;90.18;95990.97;4998319;28;20497;-87
2021/03/15 02:40:50;;;;;;;38.20;20.20;;;;;;;10.12;92.99;95987.78;4999121;28;20068;-87
2021/03/15 02:43:17;;;;;;;30.27;17.52;;;;;;;10.12;92.54;96003.81;5015525;28;20159;-88
2021/03/15 02:45:43;;;;;;;37.33;20.27;;;;;;;10.14;92.91;95993.91;5002842;28;20029;-88
2021/03/15 02:48:11;;;;;;;39.22;22.20;;;;;;;10.06;92.95;95982.97;5002511;28;20428;-87
2021/03/15 02:50:38;;;;;;;39.08;23.08;;;;;;;10.03;92.69;95979.75;5002995;28;20113;-87
2021/03/15 02:53:06;;;;;;;42.70;21.33;;;;;;;10.06;92.46;95977.63;5003176;28;20560;-87
2021/03/15 02:55:34;;;;;;;35.35;20.98;;;;;;;10.07;93.59;95976.66;5003632;28;20057;-88
2021/03/15 02:58:00;;;;;;;39.13;22.58;;;;;;;10.03;93.98;95961.03;5020090;28;20056;-88
2021/03/15 03:00:27;;;;;;;41.58;24.00;;;;;;;10.02;92.98;95960.19;4994515;28;20049;-87
2021/03/15 03:02:54;;;;;;;41.05;21.83;;;;;;;9.93;93.10;95962.78;4988629;28;20054;-87
2021/03/15 03:05:20;;;;;;;43.08;21.98;;;;;;;9.96;92.12;95962.53;4983051;28;20038;-86
2021/03/15 03:07:47;;;;;;;39.55;23.35;;;;;;;9.92;91.10;95951.25;4983787;28;20034;-86
2021/03/15 03:10:15;;;;;;;40.85;23.65;;;;;;;9.86;90.27;95949.09;4983296;28;20032;-86
2021/03/15 03:12:42;;;;;;;47.42;26.23;;;;;;;9.93;90.65;95958.31;4982620;28;20034;-86
2021/03/15 03:15:09;;;;;;;37.08;20.42;;;;;;;9.82;90.52;95953.00;4999383;28;20045;-86
2021/03/15 03:17:38;;;;;;;35.65;20.05;;;;;;;9.75;90.65;95946.50;4983323;28;20029;-87
2021/03/15 03:20:07;;;;;;;30.27;17.90;;;;;;;9.73;90.63;95940.44;4983503;28;20451;-87
2021/03/15 03:22:33;;;;;;;45.15;21.80;;;;;;;9.78;89.57;95947.06;4992014;28;20076;-87
2021/03/15 03:24:59;;;;;;;44.65;19.02;;;;;;;9.75;89.89;95938.50;4999296;28;20033;-87
2021/03/15 03:27:25;;;;;;;27.02;15.65;;;;;;;9.74;89.32;95934.13;4998949;28;20030;-87
2021/03/15 03:29:50;;;;;;;31.25;17.48;;;;;;;9.72;90.89;95930.75;4982878;28;20033;-87
2021/03/15 03:32:17;;;;;;;37.10;20.88;;;;;;;9.60;92.63;95931.75;4982655;28;20026;-87
2021/03/15 03:34:43;;;;;;;35.03;20.05;;;;;;;9.42;93.51;95922.63;4999211;28;20460;-86
2021/03/15 03:37:09;;;;;;;33.78;18.67;;;;;;;9.37;94.32;95931.03;4984867;28;20033;-86
2021/03/15 03:39:34;;;;;;;32.40;19.50;;;;;;;9.37;96.25;95922.16;4983196;28;20087;-86
2021/03/15 03:42:00;;;;;;;37.80;19.52;;;;;;;9.29;95.59;95919.31;4985285;28;20088;-87
2021/03/15 03:44:25;;;;;;;33.20;18.40;;;;;;;9.27;95.30;95909.59;5004412;28;20057;-87
2021/03/15 03:46:51;;;;;;;34.83;16.00;;;;;;;9.36;93.42;95920.47;4983180;28;20037;-88
2021/03/15 03:49:17;;;;;;;30.85;18.17;;;;;;;9.30;94.94;95908.50;4983099;28;20060;-87
2021/03/15 03:51:56;;;;;;;33.85;19.00;;;;;;;9.32;96.33;95911.03;4982743;28;20052;-88
2021/03/15 03:54:31;;;;;;;35.47;20.10;;;;;;;9.31;96.86;95910.19;4997783;28;20113;-87
2021/03/15 03:57:11;;;;;;;38.10;20.85;;;;;;;9.23;97.10;95901.97;4981503;28;20482;-87
2021/03/15 03:59:43;;;;;;;34.88;19.15;;;;;;;9.22;96.52;95897.63;4981785;28;20046;-87
2021/03/15 04:02:11;;;;;;;48.53;23.23;;;;;;;9.39;96.81;95896.19;5004840;28;20052;-87
2021/03/15 04:04:46;;;;;;;48.00;25.88;;;;;;;9.24;97.07;95888.50;5018392;28;20030;-87
2021/03/15 04:07:12;;;;;;;53.05;30.35;;;;;;;9.21;98.01;95899.44;5018562;28;20033;-85
2021/03/15 04:09:41;;;;;;;49.97;26.98;;;;;;;9.18;96.02;95886.34;5001885;28;20030;-87
2021/03/15 04:12:09;;;;;;;47.03;27.45;;;;;;;9.17;97.45;95889.13;5002434;28;20488;-87
2021/03/15 04:14:45;;;;;;;41.83;22.65;;;;;;;9.10;96.76;95878.16;5017945;28;20059;-87
2021/03/15 04:17:17;;;;;;;34.33;19.70;;;;;;;9.15;96.10;95888.44;5001456;28;20025;-87
2021/03/15 04:19:54;;;;;;;;;;;;;;;9.14;95.14;95879.56;4994374;28;20091;-87
2021/03/15 04:22:21;;;;;;;31.10;16.45;;;;;;;9.07;95.68;95873.06;4998991;28;19913;-77
2021/03/15 04:24:47;;;;;;;28.58;17.85;;;;;;;9.02;96.31;95861.91;4999397;28;20083;-77
2021/03/15 04:27:13;;;;;;;37.65;17.35;;;;;;;9.01;96.40;95862.88;5015657;28;20029;-88
2021/03/15 04:29:40;;;;;;;28.88;16.90;;;;;;;9.02;96.01;95867.25;5001697;28;20026;-87
2021/03/15 04:32:09;;;;;;;29.85;16.50;;;;;;;8.93;96.05;95856.50;4999354;28;20030;-88
2021/03/15 04:34:35;;;;;;;26.27;15.40;;;;;;;8.86;96.82;95848.16;4982816;28;20021;-87
2021/03/15 04:37:06;;;;;;;27.00;15.68;;;;;;;8.79;97.11;95855.00;4996665;28;20029;-88
2021/03/15 04:39:34;;;;;;;29.17;17.17;;;;;;;8.85;97.21;95853.63;5001068;28;20493;-86
2021/03/15 04:42:00;;;;;;;30.75;17.95;;;;;;;8.85;96.07;95842.97;5017780;28;20025;-87
2021/03/15 04:44:26;;;;;;;36.53;18.05;;;;;;;8.84;96.95;95839.44;5001214;28;20029;-87
2021/03/15 04:46:53;;;;;;;28.23;16.75;;;;;;;8.84;96.38;95833.28;5001510;28;20051;-88
2021/03/15 04:49:18;;;;;;;30.58;17.30;;;;;;;8.77;96.82;95818.78;5002158;28;20033;-87
2021/03/15 04:51:45;;;;;;;33.22;19.08;;;;;;;8.72;97.53;95813.81;5001919;28;20034;-87
2021/03/15 04:54:11;;;;;;;32.13;18.73;;;;;;;8.74;97.02;95811.03;5001045;28;20033;-86
2021/03/15 04:56:52;;;;;;;31.17;18.40;;;;;;;8.68;97.71;95818.53;5004952;28;20026;-87
2021/03/15 04:59:19;;;;;;;32.30;17.27;;;;;;;8.66;97.30;95817.84;5000379;28;20497;-77
2021/03/15 05:01:44;;;;;;;36.67;19.35;;;;;;;8.56;97.98;95822.22;5014562;28;20280;-77
2021/03/15 05:04:12;;;;;;;43.80;26.40;;;;;;;8.57;97.99;95818.59;4998538;28;20029;-77
2021/03/15 05:06:39;;;;;;;43.40;23.42;;;;;;;8.52;98.60;95819.94;4997651;28;20120;-77
2021/03/15 05:09:07;;;;;;;45.13;25.52;;;;;;;8.51;99.22;95824.41;4990388;28;20025;-77
2021/03/15 05:11:34;;;;;;;42.60;24.88;;;;;;;8.42;99.29;95819.00;4998019;28;20029;-77
2021/03/15 05:14:01;;;;;;;64.10;31.45;;;;;;;8.45;99.73;95829.38;5014757;28;20132;-77
2021/03/15 05:16:28;;;;;;;74.82;38.63;;;;;;;8.45;98.45;95829.38;5014635;28;20021;-77
2021/03/15 05:18:55;;;;;;;77.78;39.65;;;;;;;8.38;98.49;95834.38;5014627;28;20402;-77
2021/03/15 05:21:24;;;;;;;103.40;50.35;;;;;;;8.38;98.78;95828.19;4997989;28;20029;-77
2021/03/15 05:23:51;;;;;;;80.65;39.28;;;;;;;8.46;98.31;95837.25;4997799;28;20083;-76
2021/03/15 05:26:17;;;;;;;76.05;38.78;;;;;;;8.49;98.77;95830.84;5014678;28;20108;-76
2021/03/15 05:28:44;;;;;;;71.35;33.00;;;;;;;8.53;97.80;95824.28;4997825;28;20122;-77
2021/03/15 05:31:12;;;;;;;63.53;32.40;;;;;;;8.52;97.62;95818.09;4997886;28;20116;-77
2021/03/15 05:33:38;;;;;;;58.30;30.25;;;;;;;8.69;96.79;95822.06;4997546;28;20040;-77
2021/03/15 05:36:11;;;;;;;70.00;38.20;;;;;;;8.82;96.79;95822.75;4997749;28;20454;-77
2021/03/15 05:38:40;;;;;;;80.72;45.30;;;;;;;9.02;93.92;95835.25;4997684;28;20099;-76
2021/03/15 05:41:10;;;;;;;64.57;36.63;;;;;;;9.14;92.71;95815.56;5014030;28;20169;-77
2021/03/15 05:44:09;;;;;;;63.33;33.70;;;;;;;9.41;92.05;95830.22;5013902;28;20033;-76
2021/03/15 05:47:15;;;;;;;75.55;41.30;;;;;;;9.57;91.67;95833.25;4991799;28;20120;-77
2021/03/15 05:50:03;;;;;;;93.53;45.17;;;;;;;9.88;90.80;95837.66;5013924;28;20439;-77
2021/03/15 05:53:02;;;;;;;110.28;58.80;;;;;;;10.53;87.30;95826.56;5013753;28;20060;-77
2021/03/15 05:55:53;;;;;;;87.57;44.55;;;;;;;11.48;80.78;95821.41;5013729;28;20025;-76
2021/03/15 05:58:37;;;;;;;78.38;42.00;;;;;;;12.51;75.19;95823.09;5013864;28;20025;-76
2021/03/15 06:01:15;;;;;;;71.50;39.70;;;;;;;14.02;67.98;95817.66;5031455;28;20033;-78
2021/03/15 06:04:02;;;;;;;63.67;35.65;;;;;;;14.45;66.43;95828.34;5013193;28;20064;-78
2021/03/15 06:06:36;;;;;;;66.72;38.90;;;;;;;14.64;66.63;95833.44;4998575;28;20408;-86
2021/03/15 06:09:03;;;;;;;108.05;60.03;;;;;;;14.92;65.17;95825.16;4995603;28;20109;-84
2021/03/15 06:11:37;;;;;;;95.68;54.55;;;;;;;15.61;62.84;95824.78;4996914;28;20032;-85
2021/03/15 06:14:03;;;;;;;47.08;28.48;;;;;;;15.52;63.27;95818.56;5016996;28;20562;-86
2021/03/15 06:16:29;;;;;;;39.10;26.23;;;;;;;15.95;62.71;95827.31;4998772;28;20082;-85
2021/03/15 06:19:01;;;;;;;33.90;22.23;;;;;;;15.89;61.03;95809.09;4998720;28;20112;-85
2021/03/15 06:21:27;;;;;;;33.30;20.90;;;;;;;15.41;62.76;95805.38;5000016;28;20202;-86
2021/03/15 06:23:57;;;;;;;32.63;21.83;;;;;;;15.24;63.68;95808.22;5000202;28;20075;-84
2021/03/15 06:26:22;;;;;;;33.70;21.42;;;;;;;14.74;65.44;95821.72;5014977;28;20029;-84
2021/03/15 06:28:48;;;;;;;31.98;20.40;;;;;;;14.72;66.67;95821.03;4997108;28;20034;-85
2021/03/15 06:31:23;;;;;;;30.60;20.05;;;;;;;14.49;67.50;95807.31;4999745;28;20033;-86
2021/03/15 06:33:50;;;;;;;45.65;24.40;;;;;;;15.00;65.94;95803.63;5000146;28;20040;-86
2021/03/15 06:37:01;;;;;;;38.92;23.80;;;;;;;15.88;63.46;95820.91;5002857;28;20017;-87
2021/03/15 06:39:38;;;;;;;;;;;;;;;;;;;;;
2021/03/15 06:42:17;;;;;;;40.15;25.40;;;;;;;15.61;61.90;95750.16;5013014;28;20108;-85
2021/03/15 06:44:56;;;;;;;42.05;26.88;;;;;;;16.72;59.28;95807.75;5000341;28;20038;-83
2021/03/15 06:47:24;;;;;;;49.25;28.65;;;;;;;17.43;57.77;95812.91;4993567;28;20036;-86
2021/03/15 06:49:56;;;;;;;39.08;23.83;;;;;;;17.46;56.73;95814.41;4999541;28;20064;-87
2021/03/15 06:52:27;;;;;;;45.95;24.45;;;;;;;17.15;56.63;95776.63;4999240;28;20025;-86
2021/03/15 06:55:05;;;;;;;48.50;25.90;;;;;;;17.06;56.98;95821.75;5004316;28;20085;-85
2021/03/15 06:57:30;;;;;;;56.45;35.00;;;;;;;17.01;58.46;95815.22;4980398;28;20065;-86
2021/03/15 06:59:56;;;;;;;72.93;44.97;;;;;;;16.67;59.30;95807.44;5000069;28;20088;-87
2021/03/15 07:02:26;;;;;;;56.42;36.38;;;;;;;16.18;60.56;95804.03;5000235;28;20056;-86
2021/03/15 07:05:12;;;;;;;74.60;47.15;;;;;;;15.41;64.73;95810.75;5016344;28;20116;-86
2021/03/15 07:07:49;;;;;;;67.57;44.55;;;;;;;15.76;63.86;95793.44;4998428;28;20036;-85
2021/03/15 07:13:13;;;;;;;53.90;35.50;;;;;;;16.55;62.41;95812.34;5002389;28;20029;-86
2021/03/15 07:15:50;;;;;;;31.10;20.08;;;;;;;16.78;60.42;95802.47;5000999;28;20037;-84
2021/03/15 07:18:26;;;;;;;25.83;16.02;;;;;;;16.72;61.09;95803.19;4989743;28;20032;-85
2021/03/15 07:20:56;;;;;;;26.52;16.35;;;;;;;15.98;62.85;95800.00;4993985;28;20025;-85
2021/03/15 07:23:54;;;;;;;28.65;15.50;;;;;;;15.98;64.21;95791.91;5016725;28;20108;-86
2021/03/15 07:26:22;;;;;;;32.60;15.65;;;;;;;16.85;60.22;95796.38;4999290;28;20034;-86
2021/03/15 07:28:49;;;;;;;22.38;13.57;;;;;;;17.85;53.51;95796.19;4997889;28;20108;-86
2021/03/15 07:31:27;;;;;;;23.10;13.95;;;;;;;18.06;51.66;95799.03;5001651;28;20029;-86
2021/03/15 07:33:56;;;;;;;27.42;17.45;;;;;;;17.60;54.56;95794.72;5020106;28;20079;-86
2021/03/15 07:36:22;;;;;;;25.40;15.43;;;;;;;17.59;52.18;95801.19;5020234;28;20055;-84
2021/03/15 07:38:48;;;;;;;21.67;12.55;;;;;;;17.47;49.53;95792.63;5019274;28;20033;-85
2021/03/15 07:41:20;;;;;;;14.02;9.65;;;;;;;16.77;49.22;95773.78;5002419;28;20033;-86
2021/03/15 07:43:46;;;;;;;18.02;10.23;;;;;;;16.23;50.62;95769.25;5001649;28;20065;-84
2021/03/15 07:46:20;;;;;;;14.27;9.38;;;;;;;15.95;50.83;95767.97;5001764;28;20068;-86
2021/03/15 07:48:46;;;;;;;21.25;12.27;;;;;;;15.85;53.42;95776.25;5018538;28;20596;-83
2021/03/15 07:51:16;;;;;;;14.85;9.40;;;;;;;15.80;51.41;95764.28;5003274;28;20137;-85
2021/03/15 07:53:43;;;;;;;14.23;8.77;;;;;;;15.95;51.45;95770.69;5002950;28;20025;-84
2021/03/15 07:56:18;;;;;;;19.58;10.63;;;;;;;15.66;52.25;95765.81;5018732;28;20021;-85
2021/03/15 07:58:43;;;;;;;15.15;9.18;;;;;;;15.43;52.38;95738.69;5019900;28;20024;-85
2021/03/15 08:01:09;;;;;;;16.38;11.77;;;;;;;15.45;53.03;95763.63;5001615;28;20021;-86
2021/03/15 08:03:40;;;;;;;13.98;9.65;;;;;;;15.65;52.33;95754.22;5004104;28;20040;-86
2021/03/15 08:06:07;;;;;;;17.35;11.00;;;;;;;15.71;53.24;95737.38;5004869;28;20489;-86
2021/03/15 08:08:33;;;;;;;12.80;9.27;;;;;;;15.82;51.63;95728.06;5003163;28;20025;-85
2021/03/15 08:11:01;;;;;;;17.58;11.80;;;;;;;15.99;51.33;95728.88;5002359;28;20030;-85
2021/03/15 08:13:36;;;;;;;16.77;9.77;;;;;;;15.97;51.48;95734.44;5019732;28;20026;-86
2021/03/15 08:16:02;;;;;;;18.67;11.40;;;;;;;15.96;51.62;95732.75;5002184;28;20068;-86
2021/03/15 08:18:29;;;;;;;16.73;11.75;;;;;;;16.02;51.67;95721.28;5020236;28;20048;-86
2021/03/15 08:21:10;;;;;;;21.33;11.27;;;;;;;16.22;50.91;95713.63;5001834;28;20022;-87
2021/03/15 08:23:43;;;;;;;21.67;11.80;;;;;;;16.26;50.71;95721.19;5003631;28;20090;-86
2021/03/15 08:26:11;;;;;;;24.35;14.23;;;;;;;16.26;51.61;95729.28;4999873;28;20030;-87
2021/03/15 08:28:37;;;;;;;15.77;10.07;;;;;;;16.21;50.95;95723.56;5000301;28;20048;-86
2021/03/15 08:31:13;;;;;;;22.75;12.88;;;;;;;16.32;51.35;95714.25;4999987;28;20064;-85
2021/03/15 08:33:39;;;;;;;22.95;12.50;;;;;;;16.32;50.21;95713.41;5000121;28;20036;-87
2021/03/15 08:36:06;;;;;;;16.30;11.48;;;;;;;16.27;50.68;95698.56;4999742;28;20112;-86
2021/03/15 08:38:33;;;;;;;21.23;12.23;;;;;;;16.27;51.24;95709.38;5000507;28;20030;-86
2021/03/15 08:41:01;;;;;;;16.05;10.35;;;;;;;16.20;50.55;95699.47;4999824;28;20025;-86
2021/03/15 08:43:29;;;;;;;20.10;12.45;;;;;;;16.00;51.78;95690.94;4999082;28;20409;-87
2021/03/15 08:46:02;;;;;;;19.23;10.75;;;;;;;16.04;51.69;95697.66;5000175;28;20504;-88
2021/03/15 08:48:33;;;;;;;;;;;;;;;16.19;52.25;95695.94;5017948;28;20432;-85
2021/03/15 08:51:12;;;;;;;17.90;9.05;;;;;;;16.48;51.07;95687.19;5017675;28;20373;-85
2021/03/15 08:53:38;;;;;;;15.35;9.90;;;;;;;16.61;50.38;95687.47;5000774;28;20037;-87
2021/03/15 08:56:18;;;;;;;18.50;10.35;;;;;;;16.92;50.03;95683.94;5034154;28;20021;-86
2021/03/15 08:58:47;;;;;;;14.60;10.27;;;;;;;17.17;48.95;95682.69;5016599;28;20029;-86
2021/03/15 09:01:20;;;;;;;15.45;9.68;;;;;;;17.38;47.54;95685.56;5018203;28;20029;-87
2021/03/15 09:03:59;;;;;;;15.52;9.20;;;;;;;17.45;47.14;95675.69;5001022;28;20072;-86
2021/03/15 09:06:36;;;;;;;14.30;9.52;;;;;;;17.45;47.02;95681.09;4999940;28;20037;-86
2021/03/15 09:09:11;;;;;;;20.45;11.00;;;;;;;17.48;48.12;95680.75;5018994;28;20029;-86
2021/03/15 09:11:37;;;;;;;14.52;9.55;;;;;;;17.35;46.86;95672.41;5003432;28;20044;-85
2021/03/15 09:16:56;;;;;;;23.02;12.23;;;;;;;17.07;47.94;95657.81;5033710;28;20026;-86
2021/03/15 09:19:44;;;;;;;14.05;9.45;;;;;;;17.15;46.30;95657.72;4999149;28;20029;-86
2021/03/15 09:22:23;;;;;;;17.30;9.30;;;;;;;16.98;47.11;95661.59;5016630;28;20044;-87
2021/03/15 09:24:52;;;;;;;16.35;10.35;;;;;;;17.12;46.28;95652.69;5015339;28;20037;-86
2021/03/15 09:27:25;;;;;;;19.00;10.82;;;;;;;16.98;46.84;95640.00;4999626;28;20033;-86
2021/03/15 09:30:13;;;;;;;17.33;10.02;;;;;;;17.04;46.72;95634.69;4999645;28;20026;-86
2021/03/15 09:32:50;;;;;;;16.60;8.00;;;;;;;16.88;46.02;95623.19;4998870;28;20033;-85
2021/03/15 09:35:35;;;;;;;16.10;10.43;;;;;;;16.83;46.43;95609.41;5004029;28;20454;-87
2021/03/15 09:38:08;;;;;;;16.17;9.48;;;;;;;16.85;45.89;95619.00;4999104;28;20033;-87
2021/03/15 09:40:37;;;;;;;;;;;;;;;16.79;45.78;95617.88;5016609;28;20064;-86
2021/03/15 09:43:03;;;;;;;22.42;10.93;;;;;;;16.58;46.76;95611.44;5000762;28;20296;-86
2021/03/15 09:45:35;;;;;;;14.10;9.73;;;;;;;16.83;46.52;95604.00;5017503;28;20028;-86
2021/03/15 09:48:03;;;;;;;25.07;16.23;;;;;;;17.14;45.42;95607.41;5000424;28;20029;-86
2021/03/15 09:50:34;;;;;;;19.88;12.95;;;;;;;17.01;46.23;95607.22;4993103;28;20275;-86
2021/03/15 09:53:11;;;;;;;15.68;9.95;;;;;;;16.86;45.12;95604.44;4999075;28;20037;-86
2021/03/15 09:55:37;;;;;;;13.23;8.13;;;;;;;16.87;44.37;95599.91;5015233;28;20025;-86
2021/03/15 09:58:06;;;;;;;17.85;11.02;;;;;;;17.11;44.17;95596.97;4998572;28;20028;-86
2021/03/15 10:00:32;;;;;;;15.35;8.90;;;;;;;17.08;44.85;95575.72;4998236;28;20481;-87
2021/03/15 10:02:58;;;;;;;9.32;6.85;;;;;;;17.01;44.92;95580.22;5014837;28;20061;-88
2021/03/15 10:05:23;;;;;;;13.88;8.27;;;;;;;17.24;44.80;95580.97;4998426;28;20468;-87
2021/03/15 10:07:52;;;;;;;14.60;9.00;;;;;;;17.45;44.10;95570.28;4997839;28;20112;-87
2021/03/15 10:10:20;;;;;;;16.92;8.77;;;;;;;17.75;43.97;95563.88;4998515;28;20481;-88
2021/03/15 10:12:51;;;;;;;13.80;7.53;;;;;;;18.08;42.42;95563.47;4999204;28;20025;-88
2021/03/15 10:15:19;;;;;;;12.32;6.65;;;;;;;17.86;42.96;95571.53;4998637;28;20030;-86
2021/03/15 10:17:47;;;;;;;15.57;7.35;;;;;;;17.59;43.89;95566.78;4999135;28;20025;-86
2021/03/15 10:20:30;;;;;;;14.55;8.25;;;;;;;18.02;43.16;95564.22;4998776;28;20041;-86
2021/03/15 10:22:56;;;;;;;13.45;7.90;;;;;;;17.99;44.47;95551.09;5015343;28;20027;-85
2021/03/15 10:25:22;;;;;;;27.40;10.48;;;;;;;18.00;44.91;95556.28;5000068;28;20455;-86
2021/03/15 10:27:57;;;;;;;10.88;7.57;;;;;;;18.01;44.16;95547.16;4997987;28;20036;-87
2021/03/15 10:30:27;;;;;;;19.50;9.00;;;;;;;18.33;43.78;95552.09;4997867;28;20508;-84
2021/03/15 10:32:52;;;;;;;24.05;9.60;;;;;;;18.22;43.47;95528.25;4998267;28;20041;-85
2021/03/15 10:35:18;;;;;;;22.23;8.88;;;;;;;17.98;44.18;95531.31;4997619;28;20159;-86
2021/03/15 10:37:44;;;;;;;25.48;8.43;;;;;;;18.10;44.54;95534.34;4997427;28;20021;-85
2021/03/15 10:40:11;;;;;;;15.07;7.72;;;;;;;18.15;44.73;95534.63;4997590;28;20444;-86
2021/03/15 10:42:40;;;;;;;16.83;7.88;;;;;;;17.85;44.58;95531.97;4989954;28;20060;-86
2021/03/15 10:45:10;;;;;;;10.55;7.20;;;;;;;18.02;43.33;95529.91;4997686;28;20099;-86
2021/03/15 10:47:37;;;;;;;11.73;7.10;;;;;;;18.04;43.02;95527.00;4997160;28;20033;-85
2021/03/15 10:50:22;;;;;;;21.92;6.68;;;;;;;18.17;42.05;95519.88;4997330;28;20509;-86
2021/03/15 10:52:47;;;;;;;13.85;6.75;;;;;;;18.10;42.31;95524.38;4997621;28;20033;-86
2021/03/15 10:55:15;;;;;;;16.50;7.80;;;;;;;18.21;42.10;95514.94;4997126;28;20034;-87
2021/03/15 10:58:14;;;;;;;15.55;7.40;;;;;;;18.36;41.83;95519.22;4998248;28;20067;-86
2021/03/15 11:00:44;;;;;;;25.95;11.27;;;;;;;18.68;41.97;95517.06;4967883;28;20037;-85
2021/03/15 11:03:21;;;;;;;20.50;8.30;;;;;;;18.53;41.92;95514.44;4985143;28;20502;-85
2021/03/15 11:05:47;;;;;;;8.50;6.68;;;;;;;18.42;41.60;95507.66;4974008;28;20030;-85
2021/03/15 11:08:19;;;;;;;12.40;7.10;;;;;;;18.20;43.42;95503.25;4998039;28;20064;-85
2021/03/15 11:10:45;;;;;;;12.82;7.85;;;;;;;18.09;45.05;95494.81;4999394;28;20397;-85
2021/03/15 11:13:19;;;;;;;19.85;11.73;;;;;;;17.96;45.10;95498.22;4978506;28;20053;-86
2021/03/15 11:15:46;;;;;;;15.52;8.63;;;;;;;17.95;45.40;95490.25;4981323;28;20084;-85
2021/03/15 11:18:25;;;;;;;22.50;9.48;;;;;;;17.60;48.09;95489.19;4981740;28;20101;-86
2021/03/15 11:20:55;;;;;;;31.42;9.82;;;;;;;17.30;49.13;95482.97;4997976;28;20485;-85
2021/03/15 11:23:30;;;;;;;19.58;9.40;;;;;;;17.37;49.59;95481.19;4997501;28;20116;-85
2021/03/15 11:26:07;;;;;;;17.73;9.80;;;;;;;17.44;49.71;95468.63;4997553;28;20457;-86
2021/03/15 11:28:36;;;;;;;24.08;10.18;;;;;;;17.43;49.77;95460.69;4980144;28;20030;-85
2021/03/15 11:31:01;;;;;;;15.75;9.52;;;;;;;17.20;49.92;95463.47;4981152;28;20025;-86
2021/03/15 11:33:28;;;;;;;18.15;10.20;;;;;;;16.92;51.87;95451.69;4981137;28;20030;-85
2021/03/15 11:35:54;;;;;;;14.13;9.40;;;;;;;16.98;51.45;95445.53;4985390;28;20021;-85
2021/03/15 11:38:24;;;;;;;13.98;8.50;;;;;;;17.04;50.40;95445.59;4981512;28;20092;-85
2021/03/15 11:40:50;;;;;;;14.75;8.85;;;;;;;17.08;49.79;95437.97;4973829;28;20034;-85
2021/03/15 11:43:16;;;;;;;17.52;10.02;;;;;;;17.00;50.08;95430.81;4981259;28;20030;-85
2021/03/15 11:45:43;;;;;;;13.52;8.90;;;;;;;16.93;51.58;95426.31;4997380;28;20469;-85